This is the latest recevied weather packets stored in our database for station/object N2OCK. If no packets are shown the sender has not sent any weather packets the latest 10 day(s).
| Time | Temp. | Humidity | Pressure | Rain* | Wind** | Luminosity | Snow |
|---|---|---|---|---|---|---|---|
| 1778003033 | 20° C | 67% | 1010.9 hPa | 0 mm | - | 717 W/m² | - |
| 1778002729 | 20° C | 66% | 1010.8 hPa | 0 mm | - | 720 W/m² | - |
| 1778002425 | 20° C | 67% | 1010.9 hPa | 0 mm | - | 723 W/m² | - |
| 1778002122 | 20° C | 67% | 1011 hPa | 0 mm | - | 726 W/m² | - |
| 1778001820 | 20.56° C | 67% | 1011 hPa | 0 mm | - | 727 W/m² | - |
| 1778001520 | 20° C | 69% | 1011 hPa | 0 mm | - | 729 W/m² | - |
| 1778001217 | 20.56° C | 66% | 1011 hPa | 0 mm | - | 731 W/m² | - |
| 1778000913 | 20.56° C | 65% | 1011 hPa | 0 mm | - | 731 W/m² | - |
| 1778000610 | 21.11° C | 65% | 1011 hPa | 0 mm | - | 734 W/m² | - |
| 1778000305 | 21.67° C | 64% | 1011.1 hPa | 0 mm | - | 732 W/m² | - |
| 1778000001 | 21.11° C | 65% | 1011.2 hPa | 0 mm | - | 732 W/m² | - |
| 1777999697 | 21.11° C | 66% | 1011.2 hPa | 0 mm | - | 732 W/m² | - |
| 1777999394 | 21.11° C | 65% | 1011.2 hPa | 0 mm | - | 732 W/m² | - |
| 1777999092 | 21.11° C | 67% | 1011.3 hPa | 0 mm | - | 730 W/m² | - |
| 1777998791 | 20.56° C | 65% | 1011.4 hPa | 0 mm | - | 728 W/m² | - |
| 1777998488 | 20° C | 68% | 1011.4 hPa | 0 mm | - | 728 W/m² | - |
| 1777998184 | 20.56° C | 67% | 1011.3 hPa | 0 mm | - | 725 W/m² | - |
| 1777997882 | 21.67° C | 65% | 1011.3 hPa | 0 mm | - | 724 W/m² | - |
| 1777997579 | 21.11° C | 65% | 1011.3 hPa | 0 mm | - | 720 W/m² | - |
| 1777997276 | 21.67° C | 63% | 1011.6 hPa | 0 mm | - | 721 W/m² | - |
| 1777996974 | 21.11° C | 65% | 1011.6 hPa | 0 mm | - | 715 W/m² | - |
| 1777996670 | 21.67° C | 64% | 1011.7 hPa | 0 mm | - | 712 W/m² | - |
| 1777996366 | 21.67° C | 63% | 1011.5 hPa | 0 mm | - | 706 W/m² | - |
| 1777996063 | 21.67° C | 64% | 1011.4 hPa | 0 mm | - | 700 W/m² | - |
| 1777995759 | 21.11° C | 64% | 1011.5 hPa | 0 mm | - | 697 W/m² | - |
* Rain latest hour (hover to see other rain measurements)
** Current wind speed in m/s (hover to see current wind gust speed)